Time;durP1;ratioP1;P1;durP2;ratioP2;P2;SDS_P1;SDS_P2;PMS_P1;PMS_P2;Temp;Humidity;BMP_temperature;BMP_pressure;BME280_temperature;BME280_humidity;BME280_pressure;Samples;Min_cycle;Max_cycle;Signal;HPM_P1;HPM_P2
2023/04/23 00:00:11;;;;;;;6.18;4.53;;;;;;;20.42;56.62;100776.44;5033133;28;20045;-54
2023/04/23 00:02:45;;;;;;;7.68;5.28;;;;;;;20.42;56.55;100771.06;5039658;28;20502;-54
2023/04/23 00:05:15;;;;;;;5.75;4.93;;;;;;;20.42;56.67;100763.00;5032831;28;20057;-54
2023/04/23 00:07:43;;;;;;;7.10;5.53;;;;;;;20.42;56.63;100772.91;5033088;28;20371;-53
2023/04/23 00:10:11;;;;;;;9.43;5.28;;;;;;;20.42;56.53;100765.69;5032499;28;20045;-53
2023/04/23 00:12:38;;;;;;;7.53;5.65;;;;;;;20.42;56.63;100767.53;5032670;28;20509;-52
2023/04/23 00:15:06;;;;;;;7.32;5.03;;;;;;;20.41;56.61;100763.97;5033024;28;20056;-52
2023/04/23 00:17:34;;;;;;;6.40;5.38;;;;;;;20.41;56.58;100757.72;5032659;28;20045;-53
2023/04/23 00:20:01;;;;;;;8.40;5.47;;;;;;;20.40;56.46;100762.25;5032711;28;20383;-57
2023/04/23 00:22:29;;;;;;;6.65;5.60;;;;;;;20.41;56.55;100761.28;5032894;28;20488;-57
2023/04/23 00:24:56;;;;;;;7.38;6.05;;;;;;;20.41;56.44;100760.44;5042842;28;20053;-58
2023/04/23 00:27:24;;;;;;;7.80;5.43;;;;;;;20.40;56.54;100756.88;5052724;28;20527;-58
2023/04/23 00:29:51;;;;;;;7.97;4.85;;;;;;;20.39;56.37;100749.81;5052780;28;20493;-53
2023/04/23 00:32:18;;;;;;;6.72;5.30;;;;;;;20.40;56.35;100747.97;5051365;28;20387;-53
2023/04/23 00:34:48;;;;;;;6.80;5.05;;;;;;;20.39;56.38;100739.06;5052423;28;20056;-54
2023/04/23 00:37:15;;;;;;;7.32;5.63;;;;;;;20.39;56.47;100754.34;5052727;28;20072;-53
2023/04/23 00:39:43;;;;;;;7.95;5.22;;;;;;;20.39;56.41;100743.59;5051394;28;20049;-51
2023/04/23 00:42:11;;;;;;;5.97;4.60;;;;;;;20.40;56.37;100746.13;5052762;28;20045;-52
2023/04/23 00:44:40;;;;;;;9.73;5.60;;;;;;;20.39;56.43;100749.81;5051340;28;20053;-54
2023/04/23 00:47:09;;;;;;;7.60;5.35;;;;;;;20.39;56.24;100747.13;5052541;28;20483;-54
2023/04/23 00:49:38;;;;;;;5.47;4.70;;;;;;;20.38;56.22;100741.91;5055572;28;20063;-54
2023/04/23 00:52:05;;;;;;;7.90;5.03;;;;;;;20.38;56.24;100736.53;5054555;28;20052;-53
2023/04/23 00:54:33;;;;;;;6.00;4.95;;;;;;;20.39;56.43;100743.59;5050882;28;20056;-54
2023/04/23 00:57:01;;;;;;;6.53;5.20;;;;;;;20.39;56.20;100752.50;5033695;28;20049;-53
2023/04/23 00:59:30;;;;;;;6.28;4.95;;;;;;;20.38;56.19;100747.28;5036145;28;20073;-54
2023/04/23 01:01:58;;;;;;;6.40;5.03;;;;;;;20.38;56.23;100749.97;5034506;28;20052;-54
2023/04/23 01:04:29;;;;;;;6.07;4.60;;;;;;;20.38;56.26;100736.53;5034296;28;20065;-53
2023/04/23 01:06:57;;;;;;;5.18;4.60;;;;;;;20.38;56.27;100741.91;5035412;28;20049;-53
2023/04/23 01:09:26;;;;;;;6.22;4.90;;;;;;;20.39;56.14;100738.22;5034927;28;20392;-54
2023/04/23 01:11:54;;;;;;;7.47;4.35;;;;;;;20.39;56.09;100738.22;5051858;28;20180;-53
2023/04/23 01:14:21;;;;;;;8.10;5.65;;;;;;;20.39;56.15;100739.06;5037795;28;20064;-53
2023/04/23 01:16:49;;;;;;;6.65;5.22;;;;;;;20.39;56.32;100743.59;5035416;28;20052;-54
2023/04/23 01:19:17;;;;;;;7.82;5.43;;;;;;;20.38;56.23;100745.44;5035402;28;20480;-58
2023/04/23 01:21:44;;;;;;;7.57;5.18;;;;;;;20.37;56.18;100732.97;5035552;28;20046;-58
2023/04/23 01:24:12;;;;;;;5.57;4.60;;;;;;;20.37;56.06;100735.66;5035229;28;20072;-58
2023/04/23 01:26:39;;;;;;;6.35;5.15;;;;;;;20.37;56.22;100738.34;5035572;28;20045;-58
2023/04/23 01:29:08;;;;;;;10.25;5.53;;;;;;;20.36;56.17;100733.97;5035036;28;20050;-53
2023/04/23 01:31:36;;;;;;;6.28;4.57;;;;;;;20.36;56.14;100733.13;5035114;28;20472;-54
2023/04/23 01:34:04;;;;;;;6.15;5.38;;;;;;;20.37;56.12;100737.50;5034616;28;20052;-54
2023/04/23 01:36:32;;;;;;;7.90;4.93;;;;;;;20.35;56.24;100740.34;5035411;28;20518;-53
2023/04/23 01:38:59;;;;;;;8.35;4.55;;;;;;;20.36;56.15;100743.88;5034168;28;20049;-54
2023/04/23 01:41:27;;;;;;;7.00;5.18;;;;;;;20.36;56.04;100742.03;5034984;28;20061;-54
2023/04/23 01:43:56;;;;;;;7.88;5.60;;;;;;;20.35;56.05;100743.03;5034338;28;20057;-54
2023/04/23 01:46:23;;;;;;;8.50;5.25;;;;;;;20.35;55.97;100740.34;5034925;28;20060;-52
2023/04/23 01:48:51;;;;;;;6.75;4.82;;;;;;;20.35;55.98;100742.19;5035344;28;20053;-57
2023/04/23 01:51:19;;;;;;;7.88;5.47;;;;;;;20.35;55.94;100739.50;5034676;28;20056;-52
2023/04/23 01:53:46;;;;;;;7.07;5.30;;;;;;;20.34;55.98;100735.13;5034547;28;20052;-52
2023/04/23 01:56:15;;;;;;;4.78;4.25;;;;;;;20.33;56.03;100734.22;5033807;28;20049;-53
2023/04/23 01:58:43;;;;;;;7.00;4.70;;;;;;;20.34;56.07;100740.50;5033512;28;20046;-53
2023/04/23 02:01:10;;;;;;;5.75;4.25;;;;;;;20.34;55.86;100744.03;5034505;28;20057;-57
2023/04/23 02:03:38;;;;;;;5.78;4.55;;;;;;;20.33;55.91;100742.31;5044304;28;20442;-58
2023/04/23 02:06:05;;;;;;;7.30;5.45;;;;;;;20.34;55.79;100745.88;5054671;28;20049;-58
2023/04/23 02:08:33;;;;;;;6.43;5.00;;;;;;;20.34;55.96;100751.25;5053024;28;20052;-58
2023/04/23 02:11:00;;;;;;;5.72;4.72;;;;;;;20.33;55.82;100746.84;5053249;28;20419;-54
2023/04/23 02:13:27;;;;;;;6.32;4.93;;;;;;;20.33;55.77;100744.16;5044910;28;20045;-55
2023/04/23 02:15:55;;;;;;;6.20;4.55;;;;;;;20.33;55.88;100744.16;5032677;28;20049;-52
2023/04/23 02:18:22;;;;;;;8.35;4.93;;;;;;;20.33;55.83;100752.22;5034487;28;20041;-54
2023/04/23 02:20:50;;;;;;;6.05;4.85;;;;;;;20.33;55.89;100753.06;5032439;28;20065;-53
2023/04/23 02:23:17;;;;;;;7.00;5.25;;;;;;;20.32;55.89;100751.38;5034058;28;20049;-54
2023/04/23 02:25:44;;;;;;;6.38;4.30;;;;;;;20.32;55.83;100740.59;5041555;28;20490;-53
2023/04/23 02:28:12;;;;;;;5.40;4.70;;;;;;;20.32;55.57;100743.28;5053888;28;20048;-54
2023/04/23 02:30:45;;;;;;;5.60;4.53;;;;;;;20.32;55.82;100742.47;5053496;28;20052;-52
2023/04/23 02:33:13;;;;;;;6.15;4.45;;;;;;;20.32;55.75;100747.84;5053987;28;20084;-53
2023/04/23 02:35:40;;;;;;;6.65;4.45;;;;;;;20.31;55.74;100741.59;5054078;28;20041;-53
2023/04/23 02:38:07;;;;;;;4.95;4.20;;;;;;;20.31;55.66;100738.06;5053655;28;20049;-53
2023/04/23 02:40:35;;;;;;;6.70;4.80;;;;;;;20.31;55.59;100740.75;5053974;28;20060;-53
2023/04/23 02:43:02;;;;;;;5.65;3.92;;;;;;;20.31;55.80;100743.44;5052728;28;20045;-51
2023/04/23 02:45:30;;;;;;;5.95;4.97;;;;;;;20.29;55.80;100738.19;5053483;28;20055;-53
2023/04/23 02:47:57;;;;;;;6.25;5.20;;;;;;;20.30;55.71;100739.91;5051969;28;20051;-54
2023/04/23 02:50:25;;;;;;;6.05;5.32;;;;;;;20.30;55.59;100744.44;5052255;28;20398;-54
2023/04/23 02:52:52;;;;;;;5.82;4.72;;;;;;;20.31;55.63;100735.38;5051857;28;20467;-53
2023/04/23 02:55:19;;;;;;;6.45;5.50;;;;;;;20.30;55.83;100739.91;5052073;28;20553;-53
2023/04/23 02:57:47;;;;;;;5.88;4.43;;;;;;;20.31;55.55;100732.69;5037076;28;20048;-53
2023/04/23 03:00:15;;;;;;;6.18;5.28;;;;;;;20.30;55.74;100736.38;5032098;28;20060;-58
2023/04/23 03:02:44;;;;;;;7.97;5.85;;;;;;;20.30;55.61;100733.69;5032147;28;20041;-57
2023/04/23 03:05:12;;;;;;;6.22;4.85;;;;;;;20.31;55.55;100730.00;5032025;28;20057;-57
2023/04/23 03:07:39;;;;;;;6.60;4.47;;;;;;;20.30;55.60;100725.63;5032446;28;20049;-57
2023/04/23 03:10:07;;;;;;;5.53;4.50;;;;;;;20.32;55.68;100731.69;5031761;28;20046;-54
2023/04/23 03:12:35;;;;;;;5.97;4.40;;;;;;;20.30;55.56;100726.47;5052658;28;20040;-54
2023/04/23 03:15:02;;;;;;;9.63;4.90;;;;;;;20.30;55.74;100726.47;5052128;28;20049;-54
2023/04/23 03:17:33;;;;;;;5.70;4.43;;;;;;;20.31;55.71;100736.22;5053026;28;20051;-53
2023/04/23 03:20:02;;;;;;;6.28;4.72;;;;;;;20.31;55.53;100732.69;5052129;28;20056;-57
2023/04/23 03:22:30;;;;;;;5.45;4.53;;;;;;;20.31;55.74;100736.22;5051559;28;20053;-58
2023/04/23 03:24:57;;;;;;;7.43;4.78;;;;;;;20.31;55.69;100735.38;5052034;28;20051;-57
2023/04/23 03:27:25;;;;;;;5.82;4.55;;;;;;;20.30;55.63;100734.53;5052334;28;20045;-57
2023/04/23 03:29:52;;;;;;;5.82;4.82;;;;;;;20.30;55.66;100734.53;5051730;28;20044;-56
2023/04/23 03:32:20;;;;;;;6.40;4.50;;;;;;;20.30;55.62;100739.91;5051624;28;20056;-56
2023/04/23 03:34:48;;;;;;;9.00;4.80;;;;;;;20.29;55.72;100734.66;5052578;28;20053;-56
2023/04/23 03:37:15;;;;;;;6.93;4.68;;;;;;;20.29;55.68;100742.72;5051339;28;20055;-56
2023/04/23 03:39:43;;;;;;;8.85;5.38;;;;;;;20.28;55.67;100739.19;5053209;28;20048;-56
2023/04/23 03:42:11;;;;;;;6.55;4.85;;;;;;;20.29;55.74;100748.94;5051511;28;20056;-57
2023/04/23 03:44:39;;;;;;;10.52;4.82;;;;;;;20.29;55.57;100737.34;5051458;28;20060;-56
2023/04/23 03:47:07;;;;;;;6.22;5.10;;;;;;;20.28;55.81;100731.13;5051929;28;20060;-56
2023/04/23 03:49:35;;;;;;;7.90;5.38;;;;;;;20.28;55.76;100731.13;5051879;28;20053;-56
2023/04/23 03:52:03;;;;;;;6.55;5.38;;;;;;;20.28;55.80;100736.50;5051715;28;20064;-56
2023/04/23 03:54:32;;;;;;;7.88;4.68;;;;;;;20.28;55.67;100730.28;5035660;28;20045;-57
2023/04/23 03:57:04;;;;;;;5.32;4.57;;;;;;;20.29;55.53;100737.34;5051367;28;20414;-56
2023/04/23 03:59:47;;;;;;;5.30;4.30;;;;;;;20.29;55.48;100750.78;5046770;28;20053;-50
2023/04/23 04:02:14;;;;;;;7.97;4.45;;;;;;;20.30;55.65;100757.91;5031574;28;20053;-51
2023/04/23 04:04:44;;;;;;;7.80;5.10;;;;;;;20.30;55.68;100744.44;5032111;28;20403;-52
2023/04/23 04:07:13;;;;;;;10.45;6.07;;;;;;;20.28;55.59;100739.19;5014962;28;20056;-52
2023/04/23 04:09:40;;;;;;;6.18;4.93;;;;;;;20.30;55.68;100741.75;5032544;28;20053;-53
2023/04/23 04:12:08;;;;;;;6.30;4.30;;;;;;;20.29;55.63;100745.41;5032614;28;20056;-52
2023/04/23 04:14:35;;;;;;;5.18;4.38;;;;;;;20.28;55.54;100746.41;5032398;28;20046;-52
2023/04/23 04:17:05;;;;;;;6.18;4.07;;;;;;;20.28;55.64;100739.19;5032591;28;20056;-52
2023/04/23 04:19:32;;;;;;;5.57;4.40;;;;;;;20.30;55.69;100744.44;5032966;28;20046;-56
2023/04/23 04:22:02;;;;;;;5.60;4.20;;;;;;;20.30;55.62;100745.28;5031677;28;20499;-56
2023/04/23 04:24:31;;;;;;;5.28;4.03;;;;;;;20.30;55.69;100747.13;5036301;28;20048;-56
2023/04/23 04:27:01;;;;;;;6.32;4.32;;;;;;;20.31;55.61;100751.53;5049569;28;20049;-56
2023/04/23 04:29:29;;;;;;;8.70;5.22;;;;;;;20.29;55.71;100745.41;5056695;28;20394;-52
2023/04/23 04:31:57;;;;;;;6.88;5.32;;;;;;;20.29;55.61;100742.72;5056130;28;20041;-52
2023/04/23 04:34:25;;;;;;;6.88;4.97;;;;;;;20.29;55.57;100737.34;5056156;28;20371;-52
2023/04/23 04:36:52;;;;;;;6.07;4.80;;;;;;;20.29;55.55;100748.09;5056565;28;20049;-52
2023/04/23 04:39:20;;;;;;;5.65;5.00;;;;;;;20.28;55.50;100752.63;5056259;28;20053;-56
2023/04/23 04:41:47;;;;;;;5.22;4.60;;;;;;;20.28;55.62;100746.41;5055995;28;20056;-57
2023/04/23 04:44:15;;;;;;;6.28;5.07;;;;;;;20.28;55.44;100746.41;5056405;28;20037;-56
2023/04/23 04:46:42;;;;;;;7.50;4.97;;;;;;;20.27;55.41;100750.94;5056016;28;20045;-57
2023/04/23 04:49:10;;;;;;;6.05;4.57;;;;;;;20.28;55.54;100749.09;5055999;28;20053;-53
2023/04/23 04:51:40;;;;;;;5.05;4.20;;;;;;;20.28;55.31;100751.78;5056186;28;20049;-51
2023/04/23 04:54:07;;;;;;;6.80;5.10;;;;;;;20.27;55.38;100763.53;5055822;28;20052;-53
2023/04/23 04:56:34;;;;;;;6.57;4.78;;;;;;;20.27;55.29;100758.16;5055791;28;20048;-52
2023/04/23 04:59:02;;;;;;;7.68;5.03;;;;;;;20.25;55.43;100756.47;5047583;28;20050;-50
2023/04/23 05:01:32;;;;;;;7.80;4.40;;;;;;;20.25;55.36;100764.53;5035005;28;20053;-52
2023/04/23 05:03:59;;;;;;;7.28;4.95;;;;;;;20.25;55.34;100764.53;5054810;28;20044;-52
2023/04/23 05:06:27;;;;;;;7.38;4.70;;;;;;;20.24;55.27;100773.56;5055607;28;20052;-51
2023/04/23 05:08:54;;;;;;;6.75;4.80;;;;;;;20.24;55.10;100776.25;5055859;28;20049;-52
2023/04/23 05:11:22;;;;;;;6.68;4.90;;;;;;;20.24;55.35;100778.94;5054813;28;20498;-49
2023/04/23 05:13:50;;;;;;;7.07;5.07;;;;;;;20.25;55.33;100777.97;5055415;28;20044;-49
2023/04/23 05:16:18;;;;;;;6.38;5.40;;;;;;;20.24;55.16;100773.56;5055782;28;20394;-51
2023/04/23 05:18:45;;;;;;;6.60;5.38;;;;;;;20.24;55.16;100767.34;5055539;28;20057;-51
2023/04/23 05:21:14;;;;;;;6.32;4.88;;;;;;;20.23;55.42;100774.56;5055412;28;20052;-56
2023/04/23 05:23:41;;;;;;;6.00;5.28;;;;;;;20.23;55.14;100771.03;5056215;28;20056;-56
2023/04/23 05:26:10;;;;;;;5.68;4.30;;;;;;;20.23;55.14;100769.19;5055227;28;20041;-56
2023/04/23 05:28:37;;;;;;;5.53;4.40;;;;;;;20.23;55.15;100766.50;5055117;28;20471;-57
2023/04/23 05:31:04;;;;;;;5.75;5.00;;;;;;;20.23;55.20;100766.50;5055639;28;20048;-56
2023/04/23 05:33:32;;;;;;;6.03;4.60;;;;;;;20.23;55.23;100766.50;5054291;28;20052;-57
2023/04/23 05:36:12;;;;;;;6.88;4.82;;;;;;;20.23;55.23;100763.81;5055156;28;20053;-57
2023/04/23 05:38:40;;;;;;;8.48;5.20;;;;;;;20.23;55.04;100769.19;5054950;28;20515;-57
2023/04/23 05:41:07;;;;;;;6.05;4.88;;;;;;;20.23;55.13;100771.88;5053559;28;20052;-52
2023/04/23 05:43:34;;;;;;;6.18;4.25;;;;;;;20.24;55.29;100767.34;5055055;28;20044;-52
2023/04/23 05:46:03;;;;;;;7.32;5.07;;;;;;;20.22;55.20;100764.81;5054399;28;20045;-52
2023/04/23 05:48:30;;;;;;;5.50;4.90;;;;;;;20.23;55.09;100771.03;5054771;28;20044;-52
2023/04/23 05:50:58;;;;;;;6.65;4.97;;;;;;;20.22;55.19;100780.94;5054783;28;20048;-53
2023/04/23 05:53:27;;;;;;;6.10;5.50;;;;;;;20.21;55.14;100771.16;5054496;28;20048;-52
2023/04/23 05:55:54;;;;;;;6.38;5.10;;;;;;;20.22;55.26;100772.88;5054400;28;20415;-53
2023/04/23 05:58:22;;;;;;;6.20;4.68;;;;;;;20.23;55.08;100765.66;5054599;28;20045;-53
2023/04/23 06:00:51;;;;;;;5.97;4.93;;;;;;;20.23;55.26;100765.66;5038366;28;20495;-56
2023/04/23 06:03:19;;;;;;;6.35;4.85;;;;;;;20.22;55.19;100764.81;5034079;28;20079;-57
2023/04/23 06:05:47;;;;;;;7.70;5.25;;;;;;;20.22;55.34;100756.75;5034271;28;20052;-57
2023/04/23 06:08:14;;;;;;;6.50;4.90;;;;;;;20.22;55.17;100758.59;5032882;28;20060;-57
2023/04/23 06:10:41;;;;;;;7.47;5.57;;;;;;;20.22;55.36;100767.50;5033972;28;20053;-54
2023/04/23 06:13:09;;;;;;;7.70;5.30;;;;;;;20.23;55.29;100763.81;5034496;28;20058;-55
2023/04/23 06:15:37;;;;;;;5.65;4.78;;;;;;;20.23;55.23;100766.50;5034086;28;20476;-54
2023/04/23 06:18:04;;;;;;;6.55;5.03;;;;;;;20.22;55.33;100764.81;5034213;28;20052;-52
2023/04/23 06:20:32;;;;;;;7.10;5.38;;;;;;;20.23;55.31;100761.13;5032983;28;20047;-50
2023/04/23 06:23:01;;;;;;;6.53;5.32;;;;;;;20.22;55.29;100762.13;5033952;28;20052;-53
2023/04/23 06:25:28;;;;;;;6.20;4.65;;;;;;;20.23;55.39;100760.28;5034011;28;20049;-53
2023/04/23 06:27:57;;;;;;;6.68;4.90;;;;;;;20.23;55.34;100761.13;5046725;28;20049;-53
2023/04/23 06:30:28;;;;;;;6.85;4.68;;;;;;;20.23;55.32;100758.44;5052882;28;20431;-57
2023/04/23 06:32:55;;;;;;;6.13;4.68;;;;;;;20.23;55.34;100758.44;5052775;28;20056;-57
2023/04/23 06:35:23;;;;;;;6.93;4.80;;;;;;;20.23;55.37;100753.06;5054190;28;20041;-58
2023/04/23 06:37:50;;;;;;;6.70;4.63;;;;;;;20.23;55.44;100757.59;5053953;28;20049;-57
2023/04/23 06:40:17;;;;;;;5.90;5.18;;;;;;;20.23;55.50;100766.50;5053848;28;20049;-53
2023/04/23 06:42:45;;;;;;;6.95;5.20;;;;;;;20.23;55.32;100766.50;5053934;28;20048;-54
2023/04/23 06:45:15;;;;;;;5.88;4.57;;;;;;;20.23;55.45;100755.75;5052230;28;20041;-54
2023/04/23 06:47:42;;;;;;;7.60;4.93;;;;;;;20.23;55.52;100766.50;5053478;28;20045;-54
2023/04/23 06:50:10;;;;;;;6.18;5.00;;;;;;;20.23;55.46;100763.81;5053743;28;20478;-51
2023/04/23 06:52:37;;;;;;;6.63;4.88;;;;;;;20.24;55.55;100761.97;5053876;28;20414;-52
2023/04/23 06:55:08;;;;;;;7.18;5.25;;;;;;;20.24;55.55;100761.97;5053498;28;20052;-53
2023/04/23 06:57:35;;;;;;;6.00;5.40;;;;;;;20.24;55.41;100760.13;5053461;28;20099;-54
2023/04/23 07:00:08;;;;;;;6.30;5.00;;;;;;;20.24;55.49;100757.44;5053818;28;20048;-52
2023/04/23 07:02:37;;;;;;;6.78;4.88;;;;;;;20.24;55.54;100754.75;5030903;28;20046;-54
2023/04/23 07:05:05;;;;;;;6.35;5.13;;;;;;;20.24;55.63;100753.91;5033352;28;20630;-53
2023/04/23 07:07:35;;;;;;;6.82;5.38;;;;;;;20.25;55.82;100764.53;5016253;28;20053;-53
2023/04/23 07:10:06;;;;;;;6.47;5.40;;;;;;;20.27;55.77;100766.22;5032972;28;20044;-56
2023/04/23 07:12:35;;;;;;;8.07;5.97;;;;;;;20.26;55.84;100762.69;5042116;28;20055;-54
2023/04/23 07:15:05;;;;;;;7.72;5.72;;;;;;;20.26;55.68;100757.31;5033581;28;20045;-54
2023/04/23 07:17:32;;;;;;;6.10;5.30;;;;;;;20.27;55.76;100760.84;5033537;28;20482;-52
2023/04/23 07:20:03;;;;;;;8.05;5.38;;;;;;;20.27;55.75;100753.63;5033476;28;20053;-53
2023/04/23 07:22:30;;;;;;;6.53;5.05;;;;;;;20.28;55.74;100752.63;5033218;28;20068;-53
2023/04/23 07:24:58;;;;;;;5.60;4.57;;;;;;;20.30;55.89;100750.66;5033369;28;20041;-54
2023/04/23 07:27:25;;;;;;;6.07;5.47;;;;;;;20.33;55.79;100754.91;5033176;28;20057;-53
2023/04/23 07:29:52;;;;;;;5.97;4.85;;;;;;;20.33;55.67;100745.00;5033098;28;20052;-52
2023/04/23 07:32:22;;;;;;;9.13;5.30;;;;;;;20.34;55.69;100751.25;5033385;28;20399;-53
2023/04/23 07:34:50;;;;;;;6.50;5.00;;;;;;;20.35;55.73;100747.56;5033115;28;20048;-50
2023/04/23 07:37:17;;;;;;;6.93;4.80;;;;;;;20.36;55.60;100749.25;5032996;28;20049;-49
2023/04/23 07:39:45;;;;;;;7.35;5.30;;;;;;;20.39;56.02;100754.34;5033400;28;20068;-51
2023/04/23 07:42:12;;;;;;;9.80;8.02;;;;;;;20.40;55.34;100748.81;5032948;28;20045;-50
2023/04/23 07:44:39;;;;;;;8.80;6.85;;;;;;;20.40;55.28;100747.97;5032866;28;20083;-49
2023/04/23 07:47:07;;;;;;;10.82;7.65;;;;;;;20.41;55.16;100752.34;5033239;28;20052;-49
2023/04/23 07:49:34;;;;;;;8.73;6.22;;;;;;;20.41;55.48;100752.34;5031901;28;20054;-60
2023/04/23 07:52:01;;;;;;;9.95;7.97;;;;;;;20.42;55.34;100744.16;5032749;28;20053;-60
2023/04/23 07:54:29;;;;;;;9.98;8.98;;;;;;;20.43;55.13;100740.47;5032585;28;20399;-61
2023/04/23 07:56:56;;;;;;;10.13;8.27;;;;;;;20.46;55.25;100750.13;5033349;28;20487;-60
2023/04/23 07:59:24;;;;;;;8.38;7.07;;;;;;;20.48;55.37;100745.44;5036791;28;20045;-60
2023/04/23 08:01:51;;;;;;;10.65;7.90;;;;;;;20.50;55.21;100746.19;5037014;28;20037;-60
2023/04/23 08:04:19;;;;;;;12.27;7.78;;;;;;;20.52;55.12;100754.09;5035675;28;20049;-61
2023/04/23 08:06:47;;;;;;;8.57;6.72;;;;;;;20.53;55.47;100743.19;5036574;28;20522;-61
2023/04/23 08:09:14;;;;;;;9.02;8.00;;;;;;;20.54;55.50;100742.22;5036368;28;20052;-50
2023/04/23 08:11:41;;;;;;;13.57;10.20;;;;;;;20.52;53.73;100746.03;5036646;28;20061;-50
2023/04/23 08:14:09;;;;;;;15.43;11.52;;;;;;;20.47;53.15;100746.44;5036476;28;20056;-53
2023/04/23 08:16:36;;;;;;;12.23;10.88;;;;;;;20.45;53.44;100748.41;5036599;28;20070;-49
2023/04/23 08:19:05;;;;;;;12.45;11.00;;;;;;;20.45;53.33;100751.94;5036983;28;20381;-57
2023/04/23 08:21:34;;;;;;;12.70;11.00;;;;;;;20.44;53.06;100750.25;5035169;28;20057;-57
2023/04/23 08:24:03;;;;;;;13.73;11.23;;;;;;;20.43;52.89;100745.00;5036453;28;20181;-58
2023/04/23 08:26:30;;;;;;;12.07;10.77;;;;;;;20.43;53.05;100734.25;5036763;28;20494;-57
2023/04/23 08:28:59;;;;;;;13.43;11.43;;;;;;;20.43;52.90;100737.78;5049264;28;20052;-51
2023/04/23 08:31:27;;;;;;;16.05;10.93;;;;;;;20.43;53.08;100734.25;5055983;28;20041;-50
2023/04/23 08:33:54;;;;;;;12.25;8.80;;;;;;;20.45;53.93;100733.09;5056369;28;20064;-52
2023/04/23 08:36:22;;;;;;;9.85;8.10;;;;;;;20.46;53.94;100737.53;5056241;28;20045;-52
2023/04/23 08:38:49;;;;;;;10.48;8.15;;;;;;;20.47;53.96;100731.13;5055918;28;20495;-57
2023/04/23 08:41:22;;;;;;;8.98;7.55;;;;;;;20.50;53.97;100730.06;5056267;28;20057;-57
2023/04/23 08:43:55;;;;;;;7.95;6.85;;;;;;;20.51;54.06;100723.69;5056013;28;20052;-57
2023/04/23 08:46:24;;;;;;;8.38;6.40;;;;;;;20.52;53.95;100722.69;5056335;28;20052;-58
2023/04/23 08:48:52;;;;;;;7.25;6.10;;;;;;;20.54;54.06;100731.47;5056212;28;20041;-53
2023/04/23 08:51:24;;;;;;;8.77;6.38;;;;;;;20.54;54.19;100731.47;5055827;28;20064;-58
2023/04/23 08:53:57;;;;;;;7.78;5.55;;;;;;;20.55;54.24;100721.56;5056294;28;20053;-58
2023/04/23 08:56:26;;;;;;;9.30;5.67;;;;;;;20.56;54.15;100726.78;5056036;28;20470;-59
2023/04/23 08:58:53;;;;;;;7.18;5.45;;;;;;;20.58;54.28;100723.94;5055695;28;20056;-57
2023/04/23 09:01:23;;;;;;;9.77;7.95;;;;;;;20.58;54.24;100729.31;5055477;28;20045;-58
2023/04/23 09:03:52;;;;;;;12.93;8.93;;;;;;;20.57;54.19;100719.56;5039669;28;20056;-58
2023/04/23 09:06:20;;;;;;;10.88;9.02;;;;;;;20.54;54.14;100720.72;5033807;28;20048;-58
2023/04/23 09:08:48;;;;;;;12.50;10.40;;;;;;;20.54;54.19;100725.22;5034156;28;20042;-58
2023/04/23 09:11:16;;;;;;;13.38;11.13;;;;;;;20.52;53.92;100728.06;5035557;28;20053;-58
2023/04/23 09:13:44;;;;;;;13.77;10.98;;;;;;;20.50;53.78;100724.69;5048824;28;20044;-58
2023/04/23 09:16:11;;;;;;;13.48;10.52;;;;;;;20.49;53.54;100726.50;5055252;28;20040;-58
2023/04/23 09:18:38;;;;;;;12.20;10.85;;;;;;;20.49;53.42;100725.63;5055446;28;20045;-58
2023/04/23 09:21:06;;;;;;;11.27;10.05;;;;;;;20.49;53.71;100718.41;5055498;28;20056;-53
2023/04/23 09:23:37;;;;;;;10.95;9.15;;;;;;;20.51;54.13;100712.91;5055152;28;20049;-53
2023/04/23 09:26:07;;;;;;;13.55;8.88;;;;;;;20.52;54.18;100708.38;5055292;28;20483;-52
2023/04/23 09:28:35;;;;;;;8.98;7.28;;;;;;;20.54;54.59;100706.38;5055678;28;20049;-51
2023/04/23 09:31:06;;;;;;;9.95;7.15;;;;;;;20.56;54.48;100715.19;5054047;28;20045;-53
2023/04/23 09:33:34;;;;;;;8.52;6.25;;;;;;;20.58;54.66;100700.59;5055208;28;20463;-53
2023/04/23 09:36:12;;;;;;;8.15;5.93;;;;;;;20.58;54.52;100703.28;5055340;28;20041;-53
2023/04/23 09:38:40;;;;;;;8.25;6.18;;;;;;;20.60;54.73;100690.53;5054900;28;20040;-52
2023/04/23 09:41:21;;;;;;;8.75;6.38;;;;;;;20.60;54.72;100690.53;5054928;28;20053;-54
2023/04/23 09:43:48;;;;;;;10.63;6.80;;;;;;;20.61;54.87;100684.16;5055268;28;20052;-51
2023/04/23 09:46:15;;;;;;;8.60;6.20;;;;;;;20.63;54.68;100692.94;5054598;28;20044;-51
2023/04/23 09:48:43;;;;;;;7.32;5.90;;;;;;;20.63;54.75;100684.88;5054845;28;20049;-54
2023/04/23 09:51:14;;;;;;;8.73;6.03;;;;;;;20.65;54.76;100682.88;5055191;28;20045;-58
2023/04/23 09:53:44;;;;;;;7.57;5.20;;;;;;;20.65;54.67;100690.94;5054769;28;20052;-58
2023/04/23 09:56:12;;;;;;;8.60;5.95;;;;;;;20.66;54.66;100692.66;5054640;28;20041;-58
2023/04/23 09:58:39;;;;;;;6.15;4.90;;;;;;;20.67;54.62;100680.91;5053312;28;20650;-59
2023/04/23 10:01:08;;;;;;;8.10;5.82;;;;;;;20.68;54.94;100696.03;5054454;28;20379;-59
2023/04/23 10:03:35;;;;;;;7.97;5.32;;;;;;;20.68;54.75;100689.81;5049874;28;20053;-59
2023/04/23 10:06:05;;;;;;;6.60;5.30;;;;;;;20.71;54.84;100689.53;5034946;28;20049;-59
2023/04/23 10:08:38;;;;;;;6.87;5.80;;;;;;;20.72;54.63;100685.84;5034825;28;20574;-59
2023/04/23 10:11:06;;;;;;;6.25;4.90;;;;;;;20.73;54.76;100691.06;5034299;28;20064;-55
2023/04/23 10:13:47;;;;;;;6.38;5.38;;;;;;;20.74;54.78;100679.34;5034369;28;20053;-52
2023/04/23 10:16:15;;;;;;;9.80;5.25;;;;;;;20.74;54.69;100684.72;5033676;28;20045;-54
2023/04/23 10:18:52;;;;;;;8.60;5.43;;;;;;;20.74;54.64;100679.34;5034498;28;20049;-54
2023/04/23 10:21:27;;;;;;;8.35;5.70;;;;;;;20.76;54.59;100675.66;5034149;28;20514;-55
2023/04/23 10:24:03;;;;;;;7.38;5.22;;;;;;;20.76;54.86;100676.50;5034343;28;20052;-54
2023/04/23 10:26:31;;;;;;;8.52;7.13;;;;;;;20.76;54.68;100672.97;5034486;28;20046;-55
2023/04/23 10:29:00;;;;;;;8.98;6.13;;;;;;;20.75;54.67;100674.81;5040539;28;20072;-57
2023/04/23 10:31:29;;;;;;;8.25;6.22;;;;;;;20.75;54.78;100672.13;5053719;28;20041;-59
2023/04/23 10:33:58;;;;;;;7.30;6.30;;;;;;;20.75;54.63;100666.72;5053962;28;20044;-59
2023/04/23 10:36:26;;;;;;;9.02;5.38;;;;;;;20.76;54.55;100670.28;5052572;28;20056;-58
2023/04/23 10:38:58;;;;;;;9.43;6.13;;;;;;;20.74;54.50;100663.19;5053281;28;20644;-56
2023/04/23 10:41:41;;;;;;;7.20;5.40;;;;;;;20.77;54.55;100666.56;5053577;28;20045;-59
2023/04/23 10:44:15;;;;;;;7.65;5.55;;;;;;;20.77;54.59;100661.19;5053335;28;20049;-59
2023/04/23 10:47:16;;;;;;;6.65;5.40;;;;;;;20.77;54.70;100659.34;5053639;28;20503;-59
2023/04/23 10:49:43;;;;;;;8.85;5.93;;;;;;;20.78;54.65;100662.88;5053304;28;20192;-52
2023/04/23 10:52:16;;;;;;;7.97;5.60;;;;;;;20.77;54.71;100662.03;5053926;28;20052;-54
2023/04/23 10:54:55;;;;;;;13.40;6.22;;;;;;;20.78;54.81;100658.34;5053545;28;20471;-54
2023/04/23 10:57:22;;;;;;;9.65;5.40;;;;;;;20.77;54.64;100651.28;5053881;28;20045;-54
2023/04/23 10:59:53;;;;;;;6.88;4.70;;;;;;;20.78;54.67;100652.13;5053445;28;20049;-58
2023/04/23 11:02:23;;;;;;;7.35;4.85;;;;;;;20.77;54.70;100645.91;5053206;28;20049;-59
2023/04/23 11:05:00;;;;;;;6.85;5.05;;;;;;;20.78;54.90;100646.75;5050075;28;20051;-58
2023/04/23 11:07:32;;;;;;;8.32;4.88;;;;;;;20.77;54.85;100651.28;5052737;28;20041;-58
2023/04/23 11:10:10;;;;;;;8.23;5.05;;;;;;;20.78;54.91;100647.59;5053469;28;20049;-59
2023/04/23 11:12:38;;;;;;;7.45;4.90;;;;;;;20.78;54.89;100641.38;5050759;28;20053;-58
2023/04/23 11:15:14;;;;;;;7.00;4.40;;;;;;;20.78;54.75;100652.97;5033779;28;20380;-59
2023/04/23 11:17:41;;;;;;;6.93;4.68;;;;;;;20.79;54.79;100645.78;5032900;28;20066;-59
2023/04/23 11:20:19;;;;;;;6.35;4.80;;;;;;;20.79;54.93;100643.09;5032876;28;20049;-53
2023/04/23 11:22:49;;;;;;;5.90;5.10;;;;;;;20.79;54.78;100645.78;5033056;28;20045;-54
2023/04/23 11:25:19;;;;;;;5.63;4.45;;;;;;;20.79;54.89;100638.53;5032655;28;20049;-54
2023/04/23 11:27:48;;;;;;;7.90;4.85;;;;;;;20.78;54.95;100630.59;5032707;28;20379;-53
2023/04/23 11:30:18;;;;;;;6.68;4.20;;;;;;;20.79;54.90;100635.00;5031585;28;20048;-59